ADDS METAR Data INFO
IDs: Format: Raw Decoded Include TAF

Data at: 0611 UTC 25 Jun 2018

PAMM 250556Z AUTO 19004KT 10SM CLR 11/09 A2991 RMK AO2 SLP121 T01110089 10150 20111 55000
PAMM 250456Z AUTO 21003KT 10SM CLR 12/09 A2991 RMK AO2 SLP120 T01170089
PAMM 250356Z AUTO 20005KT 10SM CLR 12/09 A2991 RMK AO2 SLP120 T01220089
PAMM 250256Z AUTO 18005KT 10SM CLR 13/08 A2992 RMK AO2 SLP121 T01330083 58008
PAMM 250156Z AUTO 19005KT 10SM SCT025 14/08 A2993 RMK AO2 SLP125 T01390078
PAMM 250056Z AUTO 19010KT 10SM BKN037 15/08 A2993 RMK AO2 SLP127 T01500083
PAMM 242356Z AUTO 20007G15KT 10SM FEW030 BKN038 14/09 A2994 RMK AO2 SLP129 60005 T01390089 10156 20122 56002
PAMM 242256Z AUTO VRB06G15KT 10SM FEW021 BKN034 OVC041 15/11 A2994 RMK AO2 RAE36 SLP129 P0000 T01500111
PAMM 242156Z AUTO VRB04G14KT 10SM -RA FEW011 OVC026 14/12 A2994 RMK AO2 RAB13E34B52 SLP131 P0000 T01440117
PAMM 242056Z AUTO VRB05KT 10SM OVC024 14/12 A2995 RMK AO2 RAE40 SLP132 P0003 60005 T01390117 58004
PAMM 241956Z AUTO VRB03KT 4SM -RA BR FEW007 OVC024 13/11 A2995 RMK AO2 SLP133 P0002 T01280111
PAMM 241856Z AUTO 18006KT 6SM -RA BR FEW009 BKN023 OVC033 13/11 A2996 RMK AO2 RAB44 SLP135 P0000 T01280111
PAMM 241851Z AUTO 18005KT 7SM -RA BKN023 OVC035 13/11 A2996 RMK AO2 RAB44 P0000
PAMM 241756Z AUTO 18004KT 10SM SCT026 OVC039 12/11 A2996 RMK AO2 RAE32 SLP136 P0001 60011 T01220106 10128 20117 50001
PAMM 241734Z AUTO 16006KT 10SM FEW008 BKN019 OVC026 12/11 A2996 RMK AO2 RAE32 P0001
PAMM 241656Z AUTO 18006KT 10SM -RA BKN012 OVC022 12/11 A2996 RMK AO2 SLP137 P0001 T01220106
PAMM 241615Z AUTO VRB06KT 10SM -RA BKN010 OVC019 12/11 A2996 RMK AO2 P0000
PAMM 241556Z AUTO 15006G15KT 5SM -RA BR FEW007 OVC021 12/11 A2996 RMK AO2 SLP136 P0007 T01170106
PAMM 241456Z AUTO 15005KT 8SM -RA BKN027 OVC033 13/11 A2996 RMK AO2 RAE02B25 SLP135 P0000 60002 T01280106 55005
PAMM 241356Z AUTO 15006G14KT 10SM -RA SCT019 BKN026 OVC037 12/10 A2995 RMK AO2 RAB26 SLP135 P0000 T01220100
PAMM 241256Z AUTO VRB05KT 10SM OVC016 12/11 A2996 RMK AO2 RAE32 SLP136 P0002 T01220106
PAMM 241156Z AUTO VRB04KT 7SM -RA BKN018 OVC026 12/11 A2997 RMK AO2 SLP140 P0002 60004 70004 T01170106 10128 20111 56015
PAMM 241056Z AUTO 00000KT 10SM -RA OVC021 12/11 A2998 RMK AO2 SLP143 P0002 T01170106
PAMM 240856Z AUTO 17006KT 10SM FEW048 OVC070 13/08 A3001 RMK AO2 SLP155 60000 T01280083 58016
PAMM 240756Z AUTO VRB04KT 10SM FEW034 OVC080 12/08 A3004 RMK AO2 RAB25E37 SLP162 P0000 T01220083 401500117
PAMM 240709Z AUTO 14006KT 10SM FEW024 OVC034 13/08 A3005 RMK AO2
PAMM 240609Z AUTO 08007KT 10SM -RA OVC029 12/10 A3006 RMK AO2 P0000
PAMM 240556Z AUTO 08005KT 9SM -RA FEW024 OVC031 12/11 A3006 RMK AO2 RAB14 SLP170 P0000 60000 T01220106 10150 20122 56004
PAMM 240554Z AUTO 09005KT 9SM -RA FEW024 OVC031 12/11 A3006 RMK AO2 RAB14 P0000
PAMM 240456Z AUTO 00000KT 10SM OVC033 13/08 A3006 RMK AO2 SLP171 T01330083
PAMM 240356Z AUTO 01003KT 10SM OVC033 14/08 A3007 RMK AO2 SLP175 T01390083
PAMM 240256Z AUTO 33004KT 10SM OVC035 14/07 A3009 RMK AO2 SLP181 T01390072 56015
PAMM 240156Z AUTO 04004KT 10SM OVC037 14/08 A3010 RMK AO2 SLP184 T01440078
PAMM 240056Z AUTO 15005KT 10SM OVC043 14/06 A3012 RMK AO2 SLP189 T01440056
PAMM 232356Z AUTO 22008KT 10SM OVC050 13/08 A3014 RMK AO2 SLP196 T01330083 10144 20133 58005
PAMM 232256Z AUTO 19006KT 10SM OVC046 14/07 A3015 RMK AO2 SLP199 T01440072
PAMM 232156Z AUTO 18008KT 10SM BKN048 14/07 A3015 RMK AO2 SLP201 T01390072
PAMM 232056Z AUTO 16008KT 10SM CLR 13/07 A3015 RMK AO2 SLP201 T01330072 58003
PAMM 231956Z AUTO 18010G15KT 10SM CLR 13/08 A3017 RMK AO2 SLP206 T01330078
PAMM 231856Z AUTO VRB06KT 10SM BKN037 14/07 A3017 RMK AO2 SLP207 T01390072